sensor_id;sensor_type;location;lat;lon;timestamp;P1;durP1;ratioP1;P2;durP2;ratioP2
31114;SDS011;17764;47.152;9.828;2022-12-05T00:01:57;14.03;;;10.20;;
31114;SDS011;17764;47.152;9.828;2022-12-05T00:04:23;14.60;;;10.13;;
31114;SDS011;17764;47.152;9.828;2022-12-05T00:06:49;13.97;;;10.20;;
31114;SDS011;17764;47.152;9.828;2022-12-05T00:09:15;14.23;;;10.63;;
31114;SDS011;17764;47.152;9.828;2022-12-05T00:11:42;14.30;;;10.50;;
31114;SDS011;17764;47.152;9.828;2022-12-05T00:14:08;16.13;;;10.70;;
31114;SDS011;17764;47.152;9.828;2022-12-05T00:16:36;16.43;;;11.40;;
31114;SDS011;17764;47.152;9.828;2022-12-05T00:19:03;15.60;;;10.57;;
31114;SDS011;17764;47.152;9.828;2022-12-05T00:21:31;15.27;;;10.90;;
31114;SDS011;17764;47.152;9.828;2022-12-05T00:23:57;16.57;;;11.13;;
31114;SDS011;17764;47.152;9.828;2022-12-05T00:26:24;15.60;;;10.57;;
31114;SDS011;17764;47.152;9.828;2022-12-05T00:28:50;15.60;;;10.80;;
31114;SDS011;17764;47.152;9.828;2022-12-05T00:31:18;13.83;;;10.07;;
31114;SDS011;17764;47.152;9.828;2022-12-05T00:33:44;14.27;;;10.10;;
31114;SDS011;17764;47.152;9.828;2022-12-05T00:36:12;13.53;;;9.87;;
31114;SDS011;17764;47.152;9.828;2022-12-05T00:38:39;14.97;;;11.00;;
31114;SDS011;17764;47.152;9.828;2022-12-05T00:41:07;14.37;;;10.17;;
31114;SDS011;17764;47.152;9.828;2022-12-05T00:43:33;14.80;;;10.93;;
31114;SDS011;17764;47.152;9.828;2022-12-05T00:46:00;15.97;;;10.57;;
31114;SDS011;17764;47.152;9.828;2022-12-05T00:48:26;15.23;;;10.67;;
31114;SDS011;17764;47.152;9.828;2022-12-05T00:51:02;14.83;;;10.43;;
31114;SDS011;17764;47.152;9.828;2022-12-05T00:53:28;13.87;;;10.37;;
31114;SDS011;17764;47.152;9.828;2022-12-05T00:55:55;13.27;;;9.83;;
31114;SDS011;17764;47.152;9.828;2022-12-05T00:58:21;14.00;;;10.07;;
31114;SDS011;17764;47.152;9.828;2022-12-05T01:00:47;14.60;;;9.70;;
31114;SDS011;17764;47.152;9.828;2022-12-05T01:03:13;16.53;;;10.63;;
31114;SDS011;17764;47.152;9.828;2022-12-05T01:05:39;16.30;;;11.33;;
31114;SDS011;17764;47.152;9.828;2022-12-05T01:08:05;15.83;;;9.83;;
31114;SDS011;17764;47.152;9.828;2022-12-05T01:10:31;16.43;;;10.80;;
31114;SDS011;17764;47.152;9.828;2022-12-05T01:12:57;15.70;;;10.97;;
31114;SDS011;17764;47.152;9.828;2022-12-05T01:15:23;17.97;;;12.27;;
31114;SDS011;17764;47.152;9.828;2022-12-05T01:17:49;18.10;;;12.07;;
31114;SDS011;17764;47.152;9.828;2022-12-05T01:20:15;19.37;;;12.77;;
31114;SDS011;17764;47.152;9.828;2022-12-05T01:22:41;17.80;;;11.03;;
31114;SDS011;17764;47.152;9.828;2022-12-05T01:25:07;18.00;;;12.17;;
31114;SDS011;17764;47.152;9.828;2022-12-05T01:27:33;18.87;;;11.73;;
31114;SDS011;17764;47.152;9.828;2022-12-05T01:29:59;18.13;;;12.43;;
31114;SDS011;17764;47.152;9.828;2022-12-05T01:32:25;16.97;;;12.13;;
31114;SDS011;17764;47.152;9.828;2022-12-05T01:34:51;18.30;;;12.13;;
31114;SDS011;17764;47.152;9.828;2022-12-05T01:37:17;22.00;;;13.23;;
31114;SDS011;17764;47.152;9.828;2022-12-05T01:39:43;18.50;;;12.67;;
31114;SDS011;17764;47.152;9.828;2022-12-05T01:42:10;20.10;;;13.60;;
31114;SDS011;17764;47.152;9.828;2022-12-05T01:47:02;18.43;;;12.63;;
31114;SDS011;17764;47.152;9.828;2022-12-05T01:49:32;18.43;;;12.70;;
31114;SDS011;17764;47.152;9.828;2022-12-05T01:52:01;18.33;;;12.60;;
31114;SDS011;17764;47.152;9.828;2022-12-05T01:54:29;19.80;;;12.73;;
31114;SDS011;17764;47.152;9.828;2022-12-05T01:56:56;18.70;;;11.80;;
31114;SDS011;17764;47.152;9.828;2022-12-05T01:59:22;18.83;;;12.67;;
31114;SDS011;17764;47.152;9.828;2022-12-05T02:01:49;19.50;;;12.60;;
31114;SDS011;17764;47.152;9.828;2022-12-05T02:04:15;19.10;;;12.67;;
31114;SDS011;17764;47.152;9.828;2022-12-05T02:06:42;18.73;;;12.10;;
31114;SDS011;17764;47.152;9.828;2022-12-05T02:09:08;17.60;;;11.77;;
31114;SDS011;17764;47.152;9.828;2022-12-05T02:11:34;18.13;;;11.47;;
31114;SDS011;17764;47.152;9.828;2022-12-05T02:29:42;17.40;;;11.23;;
31114;SDS011;17764;47.152;9.828;2022-12-05T02:32:19;16.97;;;11.47;;
31114;SDS011;17764;47.152;9.828;2022-12-05T02:35:02;15.00;;;10.63;;
31114;SDS011;17764;47.152;9.828;2022-12-05T02:37:44;17.27;;;11.33;;
31114;SDS011;17764;47.152;9.828;2022-12-05T02:43:02;16.23;;;11.17;;
31114;SDS011;17764;47.152;9.828;2022-12-05T02:45:29;17.30;;;11.47;;
31114;SDS011;17764;47.152;9.828;2022-12-05T02:47:56;16.10;;;10.70;;
31114;SDS011;17764;47.152;9.828;2022-12-05T02:50:26;16.40;;;10.93;;
31114;SDS011;17764;47.152;9.828;2022-12-05T02:52:53;18.23;;;11.53;;
31114;SDS011;17764;47.152;9.828;2022-12-05T02:55:21;16.20;;;11.33;;
31114;SDS011;17764;47.152;9.828;2022-12-05T02:57:49;18.00;;;11.73;;
31114;SDS011;17764;47.152;9.828;2022-12-05T03:00:18;17.33;;;10.43;;
31114;SDS011;17764;47.152;9.828;2022-12-05T03:02:44;16.60;;;11.80;;
31114;SDS011;17764;47.152;9.828;2022-12-05T03:05:15;15.90;;;10.80;;
31114;SDS011;17764;47.152;9.828;2022-12-05T03:07:44;14.33;;;10.63;;
31114;SDS011;17764;47.152;9.828;2022-12-05T03:10:11;15.97;;;10.83;;
31114;SDS011;17764;47.152;9.828;2022-12-05T03:12:40;15.77;;;11.00;;
31114;SDS011;17764;47.152;9.828;2022-12-05T03:15:14;18.67;;;10.37;;
31114;SDS011;17764;47.152;9.828;2022-12-05T03:17:58;15.87;;;10.90;;
31114;SDS011;17764;47.152;9.828;2022-12-05T03:20:31;14.83;;;10.97;;
31114;SDS011;17764;47.152;9.828;2022-12-05T03:23:08;14.00;;;9.50;;
31114;SDS011;17764;47.152;9.828;2022-12-05T03:26:21;15.33;;;9.73;;
31114;SDS011;17764;47.152;9.828;2022-12-05T03:28:31;13.17;;;9.53;;
31114;SDS011;17764;47.152;9.828;2022-12-05T03:30:59;15.77;;;10.90;;
31114;SDS011;17764;47.152;9.828;2022-12-05T03:33:27;13.67;;;9.30;;
31114;SDS011;17764;47.152;9.828;2022-12-05T03:36:04;14.37;;;9.87;;
31114;SDS011;17764;47.152;9.828;2022-12-05T03:38:33;15.73;;;10.43;;
31114;SDS011;17764;47.152;9.828;2022-12-05T03:41:07;14.70;;;10.17;;
31114;SDS011;17764;47.152;9.828;2022-12-05T03:46:17;15.40;;;10.37;;
31114;SDS011;17764;47.152;9.828;2022-12-05T03:48:52;14.50;;;9.90;;
31114;SDS011;17764;47.152;9.828;2022-12-05T03:51:19;15.53;;;10.50;;
31114;SDS011;17764;47.152;9.828;2022-12-05T03:53:52;12.67;;;10.30;;
31114;SDS011;17764;47.152;9.828;2022-12-05T03:56:22;15.13;;;10.33;;
31114;SDS011;17764;47.152;9.828;2022-12-05T03:59:29;14.20;;;9.97;;
31114;SDS011;17764;47.152;9.828;2022-12-05T04:01:42;14.70;;;10.20;;
31114;SDS011;17764;47.152;9.828;2022-12-05T04:04:13;14.60;;;10.07;;
31114;SDS011;17764;47.152;9.828;2022-12-05T04:06:39;14.53;;;9.57;;
31114;SDS011;17764;47.152;9.828;2022-12-05T04:09:09;17.00;;;10.87;;
31114;SDS011;17764;47.152;9.828;2022-12-05T04:11:37;15.47;;;10.10;;
31114;SDS011;17764;47.152;9.828;2022-12-05T04:16:32;13.00;;;9.40;;
31114;SDS011;17764;47.152;9.828;2022-12-05T04:19:24;17.80;;;10.43;;
31114;SDS011;17764;47.152;9.828;2022-12-05T04:21:54;14.33;;;9.70;;
31114;SDS011;17764;47.152;9.828;2022-12-05T04:24:29;15.43;;;10.93;;
31114;SDS011;17764;47.152;9.828;2022-12-05T04:29:56;15.63;;;10.77;;
31114;SDS011;17764;47.152;9.828;2022-12-05T04:32:26;13.87;;;10.17;;
31114;SDS011;17764;47.152;9.828;2022-12-05T04:34:56;15.60;;;10.43;;
31114;SDS011;17764;47.152;9.828;2022-12-05T04:37:23;13.73;;;9.90;;
31114;SDS011;17764;47.152;9.828;2022-12-05T04:39:54;15.97;;;10.47;;
31114;SDS011;17764;47.152;9.828;2022-12-05T04:42:22;15.23;;;10.07;;
31114;SDS011;17764;47.152;9.828;2022-12-05T04:45:02;15.37;;;10.47;;
31114;SDS011;17764;47.152;9.828;2022-12-05T04:47:30;14.40;;;10.37;;
31114;SDS011;17764;47.152;9.828;2022-12-05T04:49:57;13.77;;;9.27;;
31114;SDS011;17764;47.152;9.828;2022-12-05T04:52:23;15.37;;;9.13;;
31114;SDS011;17764;47.152;9.828;2022-12-05T04:54:53;13.53;;;9.63;;
31114;SDS011;17764;47.152;9.828;2022-12-05T04:57:36;14.00;;;10.40;;
31114;SDS011;17764;47.152;9.828;2022-12-05T05:00:05;14.27;;;10.13;;
31114;SDS011;17764;47.152;9.828;2022-12-05T05:02:32;19.93;;;12.80;;
31114;SDS011;17764;47.152;9.828;2022-12-05T05:04:59;19.07;;;12.20;;
31114;SDS011;17764;47.152;9.828;2022-12-05T05:07:27;16.37;;;11.50;;
31114;SDS011;17764;47.152;9.828;2022-12-05T05:09:54;15.63;;;10.50;;
31114;SDS011;17764;47.152;9.828;2022-12-05T05:12:20;17.00;;;10.83;;
31114;SDS011;17764;47.152;9.828;2022-12-05T05:14:46;16.70;;;11.57;;
31114;SDS011;17764;47.152;9.828;2022-12-05T05:17:12;16.43;;;11.07;;
31114;SDS011;17764;47.152;9.828;2022-12-05T05:19:38;14.50;;;10.23;;
31114;SDS011;17764;47.152;9.828;2022-12-05T05:22:04;16.27;;;10.97;;
31114;SDS011;17764;47.152;9.828;2022-12-05T05:24:30;13.47;;;9.90;;
31114;SDS011;17764;47.152;9.828;2022-12-05T05:26:56;15.63;;;10.53;;
31114;SDS011;17764;47.152;9.828;2022-12-05T05:29:22;16.40;;;10.23;;
31114;SDS011;17764;47.152;9.828;2022-12-05T05:31:48;15.57;;;9.80;;
31114;SDS011;17764;47.152;9.828;2022-12-05T05:34:14;14.00;;;9.57;;
31114;SDS011;17764;47.152;9.828;2022-12-05T05:36:40;13.57;;;9.23;;
31114;SDS011;17764;47.152;9.828;2022-12-05T05:39:09;13.63;;;9.40;;
31114;SDS011;17764;47.152;9.828;2022-12-05T05:41:36;13.93;;;9.43;;
31114;SDS011;17764;47.152;9.828;2022-12-05T05:44:02;15.27;;;9.77;;
31114;SDS011;17764;47.152;9.828;2022-12-05T05:46:30;14.00;;;9.40;;
31114;SDS011;17764;47.152;9.828;2022-12-05T05:48:56;13.80;;;9.90;;
31114;SDS011;17764;47.152;9.828;2022-12-05T05:51:22;12.70;;;9.30;;
31114;SDS011;17764;47.152;9.828;2022-12-05T05:53:53;15.17;;;9.63;;
31114;SDS011;17764;47.152;9.828;2022-12-05T05:56:20;12.77;;;8.90;;
31114;SDS011;17764;47.152;9.828;2022-12-05T05:58:46;14.30;;;9.43;;
31114;SDS011;17764;47.152;9.828;2022-12-05T06:01:13;12.30;;;8.87;;
31114;SDS011;17764;47.152;9.828;2022-12-05T06:03:40;12.83;;;9.00;;
31114;SDS011;17764;47.152;9.828;2022-12-05T06:06:07;14.07;;;9.50;;
31114;SDS011;17764;47.152;9.828;2022-12-05T06:08:35;13.53;;;9.43;;
31114;SDS011;17764;47.152;9.828;2022-12-05T06:11:06;12.17;;;8.97;;
31114;SDS011;17764;47.152;9.828;2022-12-05T06:13:32;11.03;;;8.07;;
31114;SDS011;17764;47.152;9.828;2022-12-05T06:15:58;12.27;;;8.67;;
31114;SDS011;17764;47.152;9.828;2022-12-05T06:18:24;11.73;;;8.43;;
31114;SDS011;17764;47.152;9.828;2022-12-05T06:20:53;11.33;;;8.17;;
31114;SDS011;17764;47.152;9.828;2022-12-05T06:23:20;11.53;;;8.63;;
31114;SDS011;17764;47.152;9.828;2022-12-05T06:25:48;12.77;;;8.47;;
31114;SDS011;17764;47.152;9.828;2022-12-05T06:28:15;11.10;;;8.03;;
31114;SDS011;17764;47.152;9.828;2022-12-05T06:30:41;13.40;;;8.67;;
31114;SDS011;17764;47.152;9.828;2022-12-05T06:33:07;10.67;;;8.23;;
31114;SDS011;17764;47.152;9.828;2022-12-05T06:35:33;10.47;;;7.87;;
31114;SDS011;17764;47.152;9.828;2022-12-05T06:37:59;10.93;;;7.97;;
31114;SDS011;17764;47.152;9.828;2022-12-05T06:40:25;11.10;;;8.23;;
31114;SDS011;17764;47.152;9.828;2022-12-05T06:42:51;12.27;;;8.60;;
31114;SDS011;17764;47.152;9.828;2022-12-05T06:45:17;11.47;;;8.63;;
31114;SDS011;17764;47.152;9.828;2022-12-05T06:47:43;11.67;;;8.67;;
31114;SDS011;17764;47.152;9.828;2022-12-05T06:50:09;10.50;;;8.43;;
31114;SDS011;17764;47.152;9.828;2022-12-05T06:52:35;12.90;;;8.60;;
31114;SDS011;17764;47.152;9.828;2022-12-05T06:55:02;10.10;;;7.03;;
31114;SDS011;17764;47.152;9.828;2022-12-05T06:57:28;11.40;;;8.30;;
31114;SDS011;17764;47.152;9.828;2022-12-05T06:59:54;11.50;;;8.60;;
31114;SDS011;17764;47.152;9.828;2022-12-05T07:02:40;10.50;;;8.00;;
31114;SDS011;17764;47.152;9.828;2022-12-05T07:05:06;11.13;;;8.73;;
31114;SDS011;17764;47.152;9.828;2022-12-05T07:07:32;11.63;;;9.03;;
31114;SDS011;17764;47.152;9.828;2022-12-05T07:09:58;13.50;;;9.00;;
31114;SDS011;17764;47.152;9.828;2022-12-05T07:12:24;11.60;;;8.77;;
31114;SDS011;17764;47.152;9.828;2022-12-05T07:14:50;11.33;;;8.27;;
31114;SDS011;17764;47.152;9.828;2022-12-05T07:17:17;10.53;;;7.97;;
31114;SDS011;17764;47.152;9.828;2022-12-05T07:19:43;11.83;;;8.93;;
31114;SDS011;17764;47.152;9.828;2022-12-05T07:22:09;11.87;;;8.90;;
31114;SDS011;17764;47.152;9.828;2022-12-05T07:24:35;11.27;;;8.73;;
31114;SDS011;17764;47.152;9.828;2022-12-05T07:27:01;11.80;;;9.00;;
31114;SDS011;17764;47.152;9.828;2022-12-05T07:29:27;11.10;;;8.50;;
31114;SDS011;17764;47.152;9.828;2022-12-05T07:31:53;12.20;;;8.67;;
31114;SDS011;17764;47.152;9.828;2022-12-05T07:34:19;11.17;;;8.80;;
31114;SDS011;17764;47.152;9.828;2022-12-05T07:36:46;12.37;;;8.97;;
31114;SDS011;17764;47.152;9.828;2022-12-05T07:39:12;12.13;;;9.07;;
31114;SDS011;17764;47.152;9.828;2022-12-05T07:41:38;11.47;;;8.93;;
31114;SDS011;17764;47.152;9.828;2022-12-05T07:44:04;12.33;;;8.83;;
31114;SDS011;17764;47.152;9.828;2022-12-05T07:46:30;15.70;;;10.40;;
31114;SDS011;17764;47.152;9.828;2022-12-05T07:48:56;13.83;;;9.97;;
31114;SDS011;17764;47.152;9.828;2022-12-05T07:51:22;12.37;;;9.17;;
31114;SDS011;17764;47.152;9.828;2022-12-05T07:53:48;13.83;;;9.50;;
31114;SDS011;17764;47.152;9.828;2022-12-05T07:56:15;13.97;;;10.20;;
31114;SDS011;17764;47.152;9.828;2022-12-05T07:58:42;13.60;;;9.90;;
31114;SDS011;17764;47.152;9.828;2022-12-05T08:01:10;12.87;;;9.70;;
31114;SDS011;17764;47.152;9.828;2022-12-05T08:03:36;15.20;;;10.13;;
31114;SDS011;17764;47.152;9.828;2022-12-05T08:06:03;15.30;;;9.93;;
31114;SDS011;17764;47.152;9.828;2022-12-05T08:08:30;14.77;;;10.00;;
31114;SDS011;17764;47.152;9.828;2022-12-05T08:10:56;14.53;;;10.40;;
31114;SDS011;17764;47.152;9.828;2022-12-05T08:13:27;13.90;;;9.50;;
31114;SDS011;17764;47.152;9.828;2022-12-05T08:15:53;14.47;;;8.97;;
31114;SDS011;17764;47.152;9.828;2022-12-05T08:18:19;16.47;;;9.40;;
31114;SDS011;17764;47.152;9.828;2022-12-05T08:20:45;16.37;;;9.60;;
31114;SDS011;17764;47.152;9.828;2022-12-05T08:23:11;14.17;;;8.87;;
31114;SDS011;17764;47.152;9.828;2022-12-05T08:25:37;15.47;;;9.43;;
31114;SDS011;17764;47.152;9.828;2022-12-05T08:28:03;14.57;;;10.00;;
31114;SDS011;17764;47.152;9.828;2022-12-05T08:30:29;16.50;;;10.53;;
31114;SDS011;17764;47.152;9.828;2022-12-05T08:32:55;15.50;;;10.63;;
31114;SDS011;17764;47.152;9.828;2022-12-05T08:35:21;14.47;;;9.93;;
31114;SDS011;17764;47.152;9.828;2022-12-05T08:37:47;14.13;;;9.53;;
31114;SDS011;17764;47.152;9.828;2022-12-05T08:40:13;15.50;;;10.67;;
31114;SDS011;17764;47.152;9.828;2022-12-05T08:42:39;15.53;;;9.67;;
31114;SDS011;17764;47.152;9.828;2022-12-05T08:45:06;13.37;;;9.60;;
31114;SDS011;17764;47.152;9.828;2022-12-05T08:47:32;13.50;;;9.00;;
31114;SDS011;17764;47.152;9.828;2022-12-05T08:49:58;13.53;;;9.00;;
31114;SDS011;17764;47.152;9.828;2022-12-05T08:52:24;13.10;;;8.80;;
31114;SDS011;17764;47.152;9.828;2022-12-05T08:54:50;13.43;;;7.83;;
31114;SDS011;17764;47.152;9.828;2022-12-05T08:57:16;10.30;;;7.53;;
31114;SDS011;17764;47.152;9.828;2022-12-05T08:59:42;10.77;;;7.37;;
31114;SDS011;17764;47.152;9.828;2022-12-05T09:02:09;10.47;;;7.00;;
31114;SDS011;17764;47.152;9.828;2022-12-05T09:04:35;10.07;;;7.47;;
31114;SDS011;17764;47.152;9.828;2022-12-05T09:07:01;11.00;;;7.87;;
31114;SDS011;17764;47.152;9.828;2022-12-05T09:09:28;13.27;;;8.27;;
31114;SDS011;17764;47.152;9.828;2022-12-05T09:11:54;9.03;;;7.07;;
31114;SDS011;17764;47.152;9.828;2022-12-05T09:14:21;12.00;;;7.30;;
31114;SDS011;17764;47.152;9.828;2022-12-05T09:16:48;14.67;;;7.87;;
31114;SDS011;17764;47.152;9.828;2022-12-05T09:19:15;9.50;;;6.63;;
31114;SDS011;17764;47.152;9.828;2022-12-05T09:21:43;10.27;;;6.90;;
31114;SDS011;17764;47.152;9.828;2022-12-05T09:24:10;9.17;;;6.20;;
31114;SDS011;17764;47.152;9.828;2022-12-05T09:26:36;9.83;;;6.73;;
31114;SDS011;17764;47.152;9.828;2022-12-05T09:29:02;8.60;;;6.53;;
31114;SDS011;17764;47.152;9.828;2022-12-05T09:31:28;9.20;;;6.37;;
31114;SDS011;17764;47.152;9.828;2022-12-05T09:33:55;10.13;;;6.60;;
31114;SDS011;17764;47.152;9.828;2022-12-05T09:36:28;8.50;;;5.50;;
31114;SDS011;17764;47.152;9.828;2022-12-05T09:38:54;9.43;;;6.33;;
31114;SDS011;17764;47.152;9.828;2022-12-05T09:44:08;8.87;;;6.27;;
31114;SDS011;17764;47.152;9.828;2022-12-05T09:46:58;7.97;;;6.27;;
31114;SDS011;17764;47.152;9.828;2022-12-05T09:49:25;8.17;;;5.83;;
31114;SDS011;17764;47.152;9.828;2022-12-05T09:51:51;7.23;;;5.73;;
31114;SDS011;17764;47.152;9.828;2022-12-05T09:54:18;9.07;;;6.23;;
31114;SDS011;17764;47.152;9.828;2022-12-05T09:56:45;7.83;;;5.53;;
31114;SDS011;17764;47.152;9.828;2022-12-05T09:59:14;9.17;;;5.97;;
31114;SDS011;17764;47.152;9.828;2022-12-05T10:16:55;7.97;;;5.73;;
31114;SDS011;17764;47.152;9.828;2022-12-05T10:19:23;10.30;;;5.97;;
31114;SDS011;17764;47.152;9.828;2022-12-05T10:22:09;8.90;;;5.53;;
31114;SDS011;17764;47.152;9.828;2022-12-05T10:24:38;8.83;;;5.80;;
31114;SDS011;17764;47.152;9.828;2022-12-05T10:27:11;8.20;;;5.60;;
31114;SDS011;17764;47.152;9.828;2022-12-05T10:32:16;8.83;;;5.40;;
31114;SDS011;17764;47.152;9.828;2022-12-05T10:34:43;7.97;;;5.10;;
31114;SDS011;17764;47.152;9.828;2022-12-05T10:37:14;8.47;;;5.27;;
31114;SDS011;17764;47.152;9.828;2022-12-05T10:39:40;8.10;;;5.20;;
31114;SDS011;17764;47.152;9.828;2022-12-05T10:42:08;6.70;;;4.80;;
31114;SDS011;17764;47.152;9.828;2022-12-05T10:44:37;6.40;;;4.70;;
31114;SDS011;17764;47.152;9.828;2022-12-05T10:47:03;7.00;;;5.33;;
31114;SDS011;17764;47.152;9.828;2022-12-05T10:49:30;5.50;;;4.50;;
31114;SDS011;17764;47.152;9.828;2022-12-05T10:51:57;7.33;;;4.90;;
31114;SDS011;17764;47.152;9.828;2022-12-05T10:54:25;8.30;;;5.23;;
31114;SDS011;17764;47.152;9.828;2022-12-05T10:56:51;8.37;;;5.40;;
31114;SDS011;17764;47.152;9.828;2022-12-05T10:59:19;6.30;;;4.70;;
31114;SDS011;17764;47.152;9.828;2022-12-05T11:01:51;7.13;;;5.20;;
31114;SDS011;17764;47.152;9.828;2022-12-05T11:04:25;6.80;;;4.83;;
31114;SDS011;17764;47.152;9.828;2022-12-05T11:06:56;6.23;;;4.37;;
31114;SDS011;17764;47.152;9.828;2022-12-05T11:09:24;7.27;;;4.80;;
31114;SDS011;17764;47.152;9.828;2022-12-05T11:12:00;6.33;;;4.47;;
31114;SDS011;17764;47.152;9.828;2022-12-05T11:14:28;7.30;;;4.93;;
31114;SDS011;17764;47.152;9.828;2022-12-05T11:16:56;6.40;;;4.50;;
31114;SDS011;17764;47.152;9.828;2022-12-05T11:19:35;6.27;;;4.73;;
31114;SDS011;17764;47.152;9.828;2022-12-05T11:22:01;5.67;;;4.60;;
31114;SDS011;17764;47.152;9.828;2022-12-05T11:24:31;6.13;;;4.63;;
31114;SDS011;17764;47.152;9.828;2022-12-05T11:26:58;6.13;;;4.80;;
31114;SDS011;17764;47.152;9.828;2022-12-05T11:29:32;4.77;;;4.27;;
31114;SDS011;17764;47.152;9.828;2022-12-05T11:31:59;5.57;;;4.43;;
31114;SDS011;17764;47.152;9.828;2022-12-05T11:34:34;5.13;;;4.07;;
31114;SDS011;17764;47.152;9.828;2022-12-05T11:37:24;5.77;;;4.40;;
31114;SDS011;17764;47.152;9.828;2022-12-05T11:39:49;5.27;;;4.40;;
31114;SDS011;17764;47.152;9.828;2022-12-05T11:44:51;6.07;;;4.93;;
31114;SDS011;17764;47.152;9.828;2022-12-05T11:55:32;5.13;;;4.07;;
31114;SDS011;17764;47.152;9.828;2022-12-05T12:08:27;4.80;;;4.00;;
31114;SDS011;17764;47.152;9.828;2022-12-05T12:13:27;5.60;;;4.40;;
31114;SDS011;17764;47.152;9.828;2022-12-05T12:18:38;5.20;;;3.77;;
31114;SDS011;17764;47.152;9.828;2022-12-05T12:29:13;5.73;;;3.77;;
31114;SDS011;17764;47.152;9.828;2022-12-05T12:31:58;4.00;;;3.27;;
31114;SDS011;17764;47.152;9.828;2022-12-05T12:37:05;5.80;;;3.63;;
31114;SDS011;17764;47.152;9.828;2022-12-05T12:44:37;4.47;;;3.67;;
31114;SDS011;17764;47.152;9.828;2022-12-05T12:50:05;5.33;;;3.30;;
31114;SDS011;17764;47.152;9.828;2022-12-05T12:52:43;7.10;;;3.70;;
31114;SDS011;17764;47.152;9.828;2022-12-05T13:05:45;6.07;;;4.83;;
31114;SDS011;17764;47.152;9.828;2022-12-05T13:08:15;6.57;;;4.57;;
31114;SDS011;17764;47.152;9.828;2022-12-05T13:10:45;6.80;;;4.93;;
31114;SDS011;17764;47.152;9.828;2022-12-05T13:13:15;6.97;;;4.93;;
31114;SDS011;17764;47.152;9.828;2022-12-05T13:15:52;6.03;;;4.53;;
31114;SDS011;17764;47.152;9.828;2022-12-05T13:18:21;5.23;;;4.20;;
31114;SDS011;17764;47.152;9.828;2022-12-05T13:20:54;6.47;;;4.37;;
31114;SDS011;17764;47.152;9.828;2022-12-05T13:23:25;5.83;;;3.80;;
31114;SDS011;17764;47.152;9.828;2022-12-05T13:25:52;5.23;;;4.07;;
31114;SDS011;17764;47.152;9.828;2022-12-05T13:28:24;5.00;;;4.10;;
31114;SDS011;17764;47.152;9.828;2022-12-05T13:30:51;4.10;;;3.63;;
31114;SDS011;17764;47.152;9.828;2022-12-05T13:33:35;4.60;;;3.33;;
31114;SDS011;17764;47.152;9.828;2022-12-05T13:36:07;3.43;;;2.80;;
31114;SDS011;17764;47.152;9.828;2022-12-05T13:38:57;4.33;;;3.20;;
31114;SDS011;17764;47.152;9.828;2022-12-05T13:41:46;3.43;;;2.70;;
31114;SDS011;17764;47.152;9.828;2022-12-05T13:44:43;3.57;;;2.47;;
31114;SDS011;17764;47.152;9.828;2022-12-05T13:47:20;3.30;;;1.97;;
31114;SDS011;17764;47.152;9.828;2022-12-05T13:52:22;2.03;;;1.70;;
31114;SDS011;17764;47.152;9.828;2022-12-05T14:07:43;1.03;;;0.93;;
31114;SDS011;17764;47.152;9.828;2022-12-05T14:10:11;1.33;;;0.90;;
31114;SDS011;17764;47.152;9.828;2022-12-05T14:15:26;0.70;;;0.57;;
31114;SDS011;17764;47.152;9.828;2022-12-05T14:17:58;0.70;;;0.60;;
31114;SDS011;17764;47.152;9.828;2022-12-05T14:25:23;0.47;;;0.43;;
31114;SDS011;17764;47.152;9.828;2022-12-05T14:30:30;0.77;;;0.50;;
31114;SDS011;17764;47.152;9.828;2022-12-05T14:33:00;0.50;;;0.50;;
31114;SDS011;17764;47.152;9.828;2022-12-05T14:35:30;0.60;;;0.50;;
31114;SDS011;17764;47.152;9.828;2022-12-05T14:38:05;0.50;;;0.50;;
31114;SDS011;17764;47.152;9.828;2022-12-05T14:56:19;0.87;;;0.60;;
31114;SDS011;17764;47.152;9.828;2022-12-05T15:03:57;0.60;;;0.57;;
31114;SDS011;17764;47.152;9.828;2022-12-05T15:06:24;1.47;;;0.60;;
31114;SDS011;17764;47.152;9.828;2022-12-05T15:08:52;1.07;;;0.67;;
31114;SDS011;17764;47.152;9.828;2022-12-05T15:11:20;0.90;;;0.63;;
31114;SDS011;17764;47.152;9.828;2022-12-05T15:13:57;0.90;;;0.70;;
31114;SDS011;17764;47.152;9.828;2022-12-05T15:16:24;0.73;;;0.70;;
31114;SDS011;17764;47.152;9.828;2022-12-05T15:18:55;0.60;;;0.50;;
31114;SDS011;17764;47.152;9.828;2022-12-05T15:21:27;1.43;;;0.63;;
31114;SDS011;17764;47.152;9.828;2022-12-05T15:24:00;0.50;;;0.50;;
31114;SDS011;17764;47.152;9.828;2022-12-05T15:29:04;0.60;;;0.57;;
31114;SDS011;17764;47.152;9.828;2022-12-05T15:31:32;1.53;;;0.60;;
31114;SDS011;17764;47.152;9.828;2022-12-05T15:34:00;1.53;;;0.60;;
31114;SDS011;17764;47.152;9.828;2022-12-05T15:36:32;0.60;;;0.53;;
31114;SDS011;17764;47.152;9.828;2022-12-05T15:39:03;1.10;;;0.80;;
31114;SDS011;17764;47.152;9.828;2022-12-05T15:41:29;0.80;;;0.70;;
31114;SDS011;17764;47.152;9.828;2022-12-05T15:43:56;1.00;;;0.80;;
31114;SDS011;17764;47.152;9.828;2022-12-05T15:46:25;2.20;;;0.90;;
31114;SDS011;17764;47.152;9.828;2022-12-05T15:48:58;0.70;;;0.70;;
31114;SDS011;17764;47.152;9.828;2022-12-05T15:51:33;0.90;;;0.70;;
31114;SDS011;17764;47.152;9.828;2022-12-05T15:54:05;2.80;;;1.00;;
31114;SDS011;17764;47.152;9.828;2022-12-05T15:56:58;1.53;;;0.80;;
31114;SDS011;17764;47.152;9.828;2022-12-05T15:59:59;0.73;;;0.73;;
31114;SDS011;17764;47.152;9.828;2022-12-05T16:02:20;1.43;;;0.70;;
31114;SDS011;17764;47.152;9.828;2022-12-05T16:04:55;1.20;;;1.00;;
31114;SDS011;17764;47.152;9.828;2022-12-05T16:07:22;1.33;;;0.90;;
31114;SDS011;17764;47.152;9.828;2022-12-05T16:09:53;1.33;;;1.10;;
31114;SDS011;17764;47.152;9.828;2022-12-05T16:12:23;2.43;;;1.57;;
31114;SDS011;17764;47.152;9.828;2022-12-05T16:14:50;1.80;;;1.50;;
31114;SDS011;17764;47.152;9.828;2022-12-05T16:17:17;1.40;;;1.00;;
31114;SDS011;17764;47.152;9.828;2022-12-05T16:19:44;1.23;;;0.90;;
31114;SDS011;17764;47.152;9.828;2022-12-05T16:27:12;1.47;;;1.10;;
31114;SDS011;17764;47.152;9.828;2022-12-05T16:29:38;1.37;;;1.00;;
31114;SDS011;17764;47.152;9.828;2022-12-05T16:32:19;2.67;;;1.93;;
31114;SDS011;17764;47.152;9.828;2022-12-05T16:34:46;2.30;;;1.57;;
31114;SDS011;17764;47.152;9.828;2022-12-05T16:37:21;1.97;;;1.47;;
31114;SDS011;17764;47.152;9.828;2022-12-05T16:39:48;1.50;;;1.10;;
31114;SDS011;17764;47.152;9.828;2022-12-05T16:42:27;1.97;;;1.50;;
31114;SDS011;17764;47.152;9.828;2022-12-05T16:44:57;1.30;;;1.10;;
31114;SDS011;17764;47.152;9.828;2022-12-05T16:55:37;1.90;;;1.70;;
31114;SDS011;17764;47.152;9.828;2022-12-05T16:58:04;3.27;;;2.17;;
31114;SDS011;17764;47.152;9.828;2022-12-05T17:00:30;3.57;;;2.53;;
31114;SDS011;17764;47.152;9.828;2022-12-05T17:02:57;3.47;;;2.53;;
31114;SDS011;17764;47.152;9.828;2022-12-05T17:05:23;3.03;;;2.13;;
31114;SDS011;17764;47.152;9.828;2022-12-05T17:07:49;3.03;;;2.20;;
31114;SDS011;17764;47.152;9.828;2022-12-05T17:10:16;2.63;;;1.90;;
31114;SDS011;17764;47.152;9.828;2022-12-05T17:12:42;3.37;;;1.97;;
31114;SDS011;17764;47.152;9.828;2022-12-05T17:15:14;2.70;;;1.83;;
31114;SDS011;17764;47.152;9.828;2022-12-05T17:17:41;2.40;;;1.80;;
31114;SDS011;17764;47.152;9.828;2022-12-05T17:20:07;2.53;;;1.80;;
31114;SDS011;17764;47.152;9.828;2022-12-05T17:22:33;2.60;;;2.13;;
31114;SDS011;17764;47.152;9.828;2022-12-05T17:24:59;5.30;;;2.83;;
31114;SDS011;17764;47.152;9.828;2022-12-05T17:27:25;4.30;;;2.67;;
31114;SDS011;17764;47.152;9.828;2022-12-05T17:29:51;3.97;;;2.27;;
31114;SDS011;17764;47.152;9.828;2022-12-05T17:32:17;3.20;;;2.30;;
31114;SDS011;17764;47.152;9.828;2022-12-05T17:34:43;3.23;;;2.47;;